createdAt,value
2019-01-11T00:00:05.931Z,1015.19
2019-01-11T00:01:05.905Z,1015.24
2019-01-11T00:02:05.882Z,1015.20
2019-01-11T00:03:05.856Z,1015.16
2019-01-11T00:04:05.833Z,1015.17
2019-01-11T00:05:05.812Z,1015.09
2019-01-11T00:06:05.789Z,1015.16
2019-01-11T00:07:05.763Z,1015.12
2019-01-11T00:08:05.744Z,1015.06
2019-01-11T00:09:05.719Z,1015.08
2019-01-11T00:10:05.694Z,1015.08
2019-01-11T00:11:05.675Z,1015.09
2019-01-11T00:12:05.647Z,1015.01
2019-01-11T00:13:05.624Z,1015.04
2019-01-11T00:14:05.600Z,1015.04
2019-01-11T00:15:05.578Z,1014.98
2019-01-11T00:16:05.559Z,1015.04
2019-01-11T00:17:05.536Z,1015.03
2019-01-11T00:18:05.513Z,1015.03
2019-01-11T00:19:07.206Z,1014.97
2019-01-11T00:20:05.463Z,1014.98
2019-01-11T00:21:05.442Z,1014.95
2019-01-11T00:22:05.416Z,1014.94
2019-01-11T00:23:05.393Z,1014.95
2019-01-11T00:24:05.375Z,1014.92
2019-01-11T00:25:05.352Z,1014.91
2019-01-11T00:26:05.328Z,1014.88
2019-01-11T00:27:05.302Z,1014.92
2019-01-11T00:28:05.281Z,1014.92
2019-01-11T00:29:05.253Z,1014.90
2019-01-11T00:30:05.231Z,1014.90
2019-01-11T00:31:05.214Z,1014.87
2019-01-11T00:32:05.189Z,1014.88
2019-01-11T00:33:05.164Z,1014.84
2019-01-11T00:34:05.145Z,1014.83
2019-01-11T00:35:05.118Z,1014.79
2019-01-11T00:36:05.111Z,1014.80
2019-01-11T00:37:05.070Z,1014.76
2019-01-11T00:38:05.045Z,1014.82
2019-01-11T00:39:05.025Z,1014.78
2019-01-11T00:40:05.000Z,1014.79
2019-01-11T00:41:04.976Z,1014.80
2019-01-11T00:42:04.956Z,1014.77
2019-01-11T00:43:04.932Z,1014.74
2019-01-11T00:44:04.909Z,1014.73
2019-01-11T00:45:04.882Z,1014.75
2019-01-11T00:46:04.870Z,1014.73
2019-01-11T00:47:04.838Z,1014.71
2019-01-11T00:48:04.816Z,1014.72
2019-01-11T00:49:04.792Z,1014.74
2019-01-11T00:50:04.770Z,1014.73
2019-01-11T00:51:04.742Z,1014.77
2019-01-11T00:52:04.719Z,1014.74
2019-01-11T00:53:04.699Z,1014.68
2019-01-11T00:54:04.678Z,1014.69
2019-01-11T00:55:05.986Z,1014.76
2019-01-11T00:56:04.624Z,1014.73
2019-01-11T00:57:04.610Z,1014.72
2019-01-11T00:58:04.584Z,1014.66
2019-01-11T00:59:04.560Z,1014.65
2019-01-11T01:00:04.533Z,1014.65
2019-01-11T01:01:04.512Z,1014.61
2019-01-11T01:02:04.489Z,1014.67
2019-01-11T01:03:04.462Z,1014.67
2019-01-11T01:04:04.444Z,1014.68
2019-01-11T01:05:04.414Z,1014.65
2019-01-11T01:06:04.399Z,1014.65
2019-01-11T01:07:04.376Z,1014.66
2019-01-11T01:08:04.348Z,1014.66
2019-01-11T01:09:04.330Z,1014.62
2019-01-11T01:10:04.301Z,1014.61
2019-01-11T01:11:04.282Z,1014.66
2019-01-11T01:12:04.254Z,1014.60
2019-01-11T01:13:04.232Z,1014.64
2019-01-11T01:14:04.206Z,1014.60
2019-01-11T01:15:04.184Z,1014.60
2019-01-11T01:16:04.162Z,1014.59
2019-01-11T01:17:04.140Z,1014.61
2019-01-11T01:18:04.120Z,1014.53
2019-01-11T01:19:04.091Z,1014.62
2019-01-11T01:20:04.066Z,1014.59
2019-01-11T01:21:04.046Z,1014.59
2019-01-11T01:22:04.024Z,1014.54
2019-01-11T01:23:04.004Z,1014.53
2019-01-11T01:24:03.982Z,1014.57
2019-01-11T01:25:03.955Z,1014.53
2019-01-11T01:26:03.928Z,1014.55
2019-01-11T01:27:03.903Z,1014.52
2019-01-11T01:28:03.885Z,1014.51
2019-01-11T01:29:03.863Z,1014.48
2019-01-11T01:30:03.837Z,1014.46
2019-01-11T01:31:03.811Z,1014.48
2019-01-11T01:32:03.790Z,1014.48
2019-01-11T01:33:03.767Z,1014.48
2019-01-11T01:34:03.745Z,1014.45
2019-01-11T01:35:03.719Z,1014.41
2019-01-11T01:36:03.697Z,1014.46
2019-01-11T01:37:03.674Z,1014.46
2019-01-11T01:38:03.648Z,1014.39
2019-01-11T01:39:03.630Z,1014.45
2019-01-11T01:40:03.600Z,1014.41
2019-01-11T01:41:03.578Z,1014.43
2019-01-11T01:42:03.555Z,1014.42
2019-01-11T01:43:03.532Z,1014.39
2019-01-11T01:44:03.507Z,1014.39
2019-01-11T01:45:03.488Z,1014.35
2019-01-11T01:46:03.467Z,1014.36
2019-01-11T01:47:03.441Z,1014.33
2019-01-11T01:48:03.418Z,1014.36
2019-01-11T01:49:03.398Z,1014.27
2019-01-11T01:50:03.371Z,1014.29
2019-01-11T01:51:03.349Z,1014.23
2019-01-11T01:52:03.327Z,1014.23
2019-01-11T01:53:03.299Z,1014.26
2019-01-11T01:54:03.281Z,1014.21
2019-01-11T01:55:03.260Z,1014.24
2019-01-11T01:56:03.236Z,1014.20
2019-01-11T01:57:03.205Z,1014.18
2019-01-11T01:58:03.191Z,1014.17
2019-01-11T01:59:03.165Z,1014.21
2019-01-11T02:00:03.140Z,1014.16
2019-01-11T02:01:03.116Z,1014.15
2019-01-11T02:02:03.089Z,1014.20
2019-01-11T02:03:03.066Z,1014.19
2019-01-11T02:04:03.043Z,1014.19
2019-01-11T02:05:03.022Z,1014.24
2019-01-11T02:06:02.999Z,1014.13
2019-01-11T02:07:02.972Z,1014.16
2019-01-11T02:08:02.947Z,1014.19
2019-01-11T02:09:02.929Z,1014.16
2019-01-11T02:10:02.907Z,1014.10
2019-01-11T02:11:02.884Z,1014.10
2019-01-11T02:12:02.870Z,1014.11
2019-01-11T02:13:02.837Z,1014.11
2019-01-11T02:14:02.811Z,1014.11
2019-01-11T02:15:02.790Z,1014.11
2019-01-11T02:16:02.768Z,1014.07
2019-01-11T02:17:02.743Z,1014.05
2019-01-11T02:18:02.729Z,1014.02
2019-01-11T02:19:02.696Z,1014.04
2019-01-11T02:20:02.691Z,1014.02
2019-01-11T02:21:02.648Z,1014.01
2019-01-11T02:22:02.628Z,1013.98
2019-01-11T02:23:02.601Z,1014.00
2019-01-11T02:24:02.580Z,1013.99
2019-01-11T02:25:02.557Z,1013.93
2019-01-11T02:26:02.533Z,1013.94
2019-01-11T02:27:02.512Z,1014.00
2019-01-11T02:28:02.488Z,1013.97
2019-01-11T02:29:02.465Z,1013.95
2019-01-11T02:30:02.448Z,1013.95
2019-01-11T02:31:02.415Z,1013.90
2019-01-11T02:32:02.395Z,1013.89
2019-01-11T02:33:02.381Z,1013.88
2019-01-11T02:34:02.363Z,1013.89
2019-01-11T02:35:02.329Z,1013.91
2019-01-11T02:36:02.316Z,1013.85
2019-01-11T02:37:02.279Z,1013.89
2019-01-11T02:38:02.258Z,1013.82
2019-01-11T02:39:02.232Z,1013.86
2019-01-11T02:40:02.210Z,1013.86
2019-01-11T02:41:02.188Z,1013.87
2019-01-11T02:42:02.160Z,1013.84
2019-01-11T02:43:02.140Z,1013.85
2019-01-11T02:44:02.116Z,1013.90
2019-01-11T02:45:02.090Z,1013.94
2019-01-11T02:46:02.074Z,1013.93
2019-01-11T02:47:02.046Z,1013.91
2019-01-11T02:48:02.041Z,1013.90
2019-01-11T02:49:02.003Z,1013.88
2019-01-11T02:50:02.028Z,1013.92
2019-01-11T02:51:01.956Z,1013.90
2019-01-11T02:52:01.927Z,1013.88
2019-01-11T02:53:01.908Z,1013.88
2019-01-11T02:54:04.885Z,1013.86
2019-01-11T02:55:01.862Z,1013.85
2019-01-11T02:56:01.838Z,1013.87
2019-01-11T02:57:01.813Z,1013.83
2019-01-11T02:58:01.790Z,1013.82
2019-01-11T02:59:02.949Z,1013.84
2019-01-11T03:00:01.741Z,1013.81
2019-01-11T03:01:01.736Z,1013.76
2019-01-11T03:02:01.698Z,1013.78
2019-01-11T03:03:01.677Z,1013.76
2019-01-11T03:04:01.651Z,1013.77
2019-01-11T03:05:01.626Z,1013.73
2019-01-11T03:06:01.613Z,1013.65
2019-01-11T03:07:01.584Z,1013.62
2019-01-11T03:08:01.560Z,1013.62
2019-01-11T03:09:01.534Z,1013.59
2019-01-11T03:10:01.510Z,1013.56
2019-01-11T03:11:01.491Z,1013.56
2019-01-11T03:12:01.466Z,1013.58
2019-01-11T03:13:01.440Z,1013.55
2019-01-11T03:14:01.422Z,1013.57
2019-01-11T03:15:01.397Z,1013.48
2019-01-11T03:16:01.373Z,1013.47
2019-01-11T03:17:01.347Z,1013.52
2019-01-11T03:18:01.329Z,1013.47
2019-01-11T03:19:01.306Z,1013.48
2019-01-11T03:20:01.292Z,1013.47
2019-01-11T03:21:01.258Z,1013.45
2019-01-11T03:22:01.236Z,1013.49
2019-01-11T03:23:01.219Z,1013.44
2019-01-11T03:24:01.191Z,1013.41
2019-01-11T03:25:01.167Z,1013.45
2019-01-11T03:26:01.141Z,1013.42
2019-01-11T03:27:01.119Z,1013.39
2019-01-11T03:28:01.095Z,1013.38
2019-01-11T03:29:01.069Z,1013.36
2019-01-11T03:30:01.049Z,1013.37
2019-01-11T03:31:01.033Z,1013.33
2019-01-11T03:32:01.015Z,1013.32
2019-01-11T03:33:01.006Z,1013.42
2019-01-11T03:34:00.956Z,1013.38
2019-01-11T03:35:00.938Z,1013.35
2019-01-11T03:36:00.908Z,1013.38
2019-01-11T03:37:00.889Z,1013.36
2019-01-11T03:38:00.867Z,1013.37
2019-01-11T03:39:00.843Z,1013.40
2019-01-11T03:40:00.814Z,1013.38
2019-01-11T03:41:00.791Z,1013.34
2019-01-11T03:42:00.772Z,1013.36
2019-01-11T03:43:00.747Z,1013.33
2019-01-11T03:44:00.724Z,1013.36
2019-01-11T03:45:00.704Z,1013.33
2019-01-11T03:46:00.679Z,1013.39
2019-01-11T03:47:00.656Z,1013.32
2019-01-11T03:48:00.637Z,1013.25
2019-01-11T03:49:00.608Z,1013.29
2019-01-11T03:50:00.586Z,1013.29
2019-01-11T03:51:00.562Z,1013.27
2019-01-11T03:52:00.537Z,1013.30
2019-01-11T03:53:00.514Z,1013.23
2019-01-11T03:54:00.492Z,1013.25
2019-01-11T03:55:00.468Z,1013.25
2019-01-11T03:56:00.447Z,1013.27
2019-01-11T03:57:00.435Z,1013.22
2019-01-11T03:58:00.403Z,1013.21
2019-01-11T03:59:00.379Z,1013.23
2019-01-11T04:00:00.350Z,1013.20
2019-01-11T04:01:00.332Z,1013.23
2019-01-11T04:02:00.315Z,1013.25
2019-01-11T04:03:00.287Z,1013.28
2019-01-11T04:04:00.263Z,1013.28
2019-01-11T04:05:00.387Z,1013.28
2019-01-11T04:06:00.217Z,1013.29
2019-01-11T04:07:00.191Z,1013.31
2019-01-11T04:08:00.175Z,1013.26
2019-01-11T04:09:00.146Z,1013.24
2019-01-11T04:10:00.199Z,1013.17
2019-01-11T04:11:00.107Z,1013.17
2019-01-11T04:12:00.090Z,1013.10
2019-01-11T04:13:00.091Z,1013.10
2019-01-11T04:14:00.034Z,1013.05
2019-01-11T04:15:00.007Z,1013.10
2019-01-11T04:15:59.987Z,1013.14
2019-01-11T04:16:59.963Z,1013.13
2019-01-11T04:17:59.943Z,1013.18
2019-01-11T04:18:59.917Z,1013.19
2019-01-11T04:20:02.268Z,1013.23
2019-01-11T04:20:59.868Z,1013.25
2019-01-11T04:21:59.854Z,1013.18
2019-01-11T04:22:59.895Z,1013.14
2019-01-11T04:24:00.717Z,1013.14
2019-01-11T04:24:59.827Z,1013.11
2019-01-11T04:26:00.710Z,1013.10
2019-01-11T04:27:00.701Z,1013.10
2019-01-11T04:28:00.704Z,1013.07
2019-01-11T04:29:00.737Z,1013.06
2019-01-11T04:29:59.792Z,1013.05
2019-01-11T04:31:00.202Z,1013.05
2019-01-11T04:32:00.207Z,1013.05
2019-01-11T04:32:59.703Z,1013.04
2019-01-11T04:33:59.571Z,1013.02
2019-01-11T04:34:59.546Z,1013.04
2019-01-11T04:35:59.527Z,1013.11
2019-01-11T04:36:59.497Z,1013.09
2019-01-11T04:37:59.479Z,1013.10
2019-01-11T04:38:59.457Z,1013.12
2019-01-11T04:39:59.433Z,1013.14
2019-01-11T04:40:59.448Z,1013.10
2019-01-11T04:41:59.385Z,1013.09
2019-01-11T04:42:59.365Z,1013.05
2019-01-11T04:43:59.341Z,1013.04
2019-01-11T04:44:59.321Z,1013.16
2019-01-11T04:45:59.296Z,1013.11
2019-01-11T04:46:59.274Z,1013.09
2019-01-11T04:47:59.248Z,1013.06
2019-01-11T04:48:59.232Z,1013.08
2019-01-11T04:49:59.213Z,1013.06
2019-01-11T04:50:59.181Z,1013.03
2019-01-11T04:51:59.154Z,1013.02
2019-01-11T04:52:59.135Z,1013.01
2019-01-11T04:53:59.113Z,1013.03
2019-01-11T04:54:59.091Z,1013.05
2019-01-11T04:55:59.069Z,1012.99
2019-01-11T04:56:59.043Z,1013.00
2019-01-11T04:57:59.020Z,1012.98
2019-01-11T04:58:58.996Z,1013.01
2019-01-11T04:59:58.974Z,1013.03
2019-01-11T05:00:58.949Z,1012.97
2019-01-11T05:01:58.929Z,1012.95
2019-01-11T05:02:58.904Z,1012.96
2019-01-11T05:03:58.881Z,1012.91
2019-01-11T05:04:58.857Z,1012.92
2019-01-11T05:05:58.836Z,1012.87
2019-01-11T05:06:58.820Z,1012.88
2019-01-11T05:07:58.788Z,1012.91
2019-01-11T05:08:58.765Z,1012.89
2019-01-11T05:09:58.755Z,1012.88
2019-01-11T05:10:58.720Z,1012.90
2019-01-11T05:11:58.696Z,1012.88
2019-01-11T05:12:58.715Z,1012.87
2019-01-11T05:13:58.658Z,1012.86
2019-01-11T05:14:58.634Z,1012.82
2019-01-11T05:15:58.611Z,1012.83
2019-01-11T05:16:58.583Z,1012.85
2019-01-11T05:17:58.564Z,1012.81
2019-01-11T05:18:58.540Z,1012.82
2019-01-11T05:19:58.520Z,1012.81
2019-01-11T05:20:58.497Z,1012.78
2019-01-11T05:21:58.474Z,1012.77
2019-01-11T05:22:58.465Z,1012.75
2019-01-11T05:23:58.430Z,1012.78
2019-01-11T05:24:58.439Z,1012.76
2019-01-11T05:25:58.379Z,1012.76
2019-01-11T05:26:58.359Z,1012.74
2019-01-11T05:27:58.336Z,1012.73
2019-01-11T05:28:58.317Z,1012.73
2019-01-11T05:29:58.294Z,1012.69
2019-01-11T05:30:58.271Z,1012.72
2019-01-11T05:31:58.241Z,1012.69
2019-01-11T05:32:58.222Z,1012.70
2019-01-11T05:33:58.197Z,1012.67
2019-01-11T05:34:58.175Z,1012.69
2019-01-11T05:35:58.155Z,1012.66
2019-01-11T05:36:58.131Z,1012.66
2019-01-11T05:37:58.112Z,1012.67
2019-01-11T05:38:58.086Z,1012.67
2019-01-11T05:39:58.065Z,1012.65
2019-01-11T05:40:58.036Z,1012.58
2019-01-11T05:41:58.098Z,1012.61
2019-01-11T05:42:58.002Z,1012.62
2019-01-11T05:43:57.969Z,1012.64
2019-01-11T05:44:57.953Z,1012.66
2019-01-11T05:45:57.929Z,1012.66
2019-01-11T05:46:57.904Z,1012.61
2019-01-11T05:47:57.883Z,1012.59
2019-01-11T05:48:57.855Z,1012.62
2019-01-11T05:49:57.834Z,1012.61
2019-01-11T05:50:57.814Z,1012.61
2019-01-11T05:51:57.790Z,1012.62
2019-01-11T05:52:57.768Z,1012.65
2019-01-11T05:53:57.748Z,1012.64
2019-01-11T05:54:57.726Z,1012.64
2019-01-11T05:55:57.705Z,1012.64
2019-01-11T05:56:57.678Z,1012.65
2019-01-11T05:57:57.656Z,1012.63
2019-01-11T05:58:57.631Z,1012.61
2019-01-11T05:59:57.609Z,1012.57
2019-01-11T06:00:57.595Z,1012.59
2019-01-11T06:01:57.561Z,1012.58
2019-01-11T06:02:57.544Z,1012.59
2019-01-11T06:03:57.517Z,1012.55
2019-01-11T06:04:57.495Z,1012.59
2019-01-11T06:05:57.532Z,1012.64
2019-01-11T06:06:57.451Z,1012.65
2019-01-11T06:07:57.426Z,1012.67
2019-01-11T06:08:57.405Z,1012.66
2019-01-11T06:09:57.382Z,1012.69
2019-01-11T06:10:57.359Z,1012.71
2019-01-11T06:11:57.340Z,1012.70
2019-01-11T06:12:57.316Z,1012.72
2019-01-11T06:13:57.295Z,1012.69
2019-01-11T06:14:57.269Z,1012.65
2019-01-11T06:15:57.249Z,1012.67
2019-01-11T06:16:57.225Z,1012.71
2019-01-11T06:17:57.205Z,1012.71
2019-01-11T06:18:57.183Z,1012.70
2019-01-11T06:19:57.159Z,1012.71
2019-01-11T06:20:57.132Z,1012.70
2019-01-11T06:21:57.115Z,1012.68
2019-01-11T06:22:57.088Z,1012.68
2019-01-11T06:23:57.066Z,1012.69
2019-01-11T06:24:57.040Z,1012.70
2019-01-11T06:25:57.023Z,1012.66
2019-01-11T06:26:57.004Z,1012.65
2019-01-11T06:27:56.977Z,1012.64
2019-01-11T06:28:56.954Z,1012.69
2019-01-11T06:29:56.933Z,1012.69
2019-01-11T06:30:56.914Z,1012.64
2019-01-11T06:31:56.883Z,1012.63
2019-01-11T06:32:56.861Z,1012.65
2019-01-11T06:33:56.841Z,1012.64
2019-01-11T06:34:56.818Z,1012.59
2019-01-11T06:35:56.796Z,1012.62
2019-01-11T06:36:56.772Z,1012.62
2019-01-11T06:37:56.752Z,1012.64
2019-01-11T06:38:56.733Z,1012.62
2019-01-11T06:39:56.707Z,1012.60
2019-01-11T06:40:56.685Z,1012.60
2019-01-11T06:41:56.661Z,1012.57
2019-01-11T06:42:56.642Z,1012.54
2019-01-11T06:43:56.618Z,1012.55
2019-01-11T06:44:56.595Z,1012.51
2019-01-11T06:45:56.573Z,1012.49
2019-01-11T06:46:56.547Z,1012.48
2019-01-11T06:47:56.527Z,1012.50
2019-01-11T06:48:56.507Z,1012.48
2019-01-11T06:49:56.484Z,1012.50
2019-01-11T06:50:56.458Z,1012.49
2019-01-11T06:51:56.435Z,1012.44
2019-01-11T06:52:56.419Z,1012.51
2019-01-11T06:53:56.397Z,1012.51
2019-01-11T06:54:56.370Z,1012.51
2019-01-11T06:55:56.347Z,1012.50
2019-01-11T06:56:56.334Z,1012.54
2019-01-11T06:57:56.302Z,1012.64
2019-01-11T06:58:56.279Z,1012.66
2019-01-11T06:59:56.255Z,1012.68
2019-01-11T07:00:56.236Z,1012.71
2019-01-11T07:01:56.212Z,1012.74
2019-01-11T07:02:56.196Z,1012.73
2019-01-11T07:03:56.173Z,1012.72
2019-01-11T07:04:56.145Z,1012.76
2019-01-11T07:05:56.125Z,1012.76
2019-01-11T07:06:56.103Z,1012.79
2019-01-11T07:07:56.083Z,1012.78
2019-01-11T07:08:56.058Z,1012.77
2019-01-11T07:09:56.036Z,1012.80
2019-01-11T07:10:56.012Z,1012.76
2019-01-11T07:11:55.991Z,1012.78
2019-01-11T07:12:55.964Z,1012.79
2019-01-11T07:13:55.946Z,1012.80
2019-01-11T07:14:55.929Z,1012.76
2019-01-11T07:15:55.908Z,1012.80
2019-01-11T07:16:55.881Z,1012.77
2019-01-11T07:17:55.855Z,1012.78
2019-01-11T07:18:55.834Z,1012.77
2019-01-11T07:19:55.808Z,1012.75
2019-01-11T07:20:55.792Z,1012.75
2019-01-11T07:21:55.767Z,1012.77
2019-01-11T07:22:55.746Z,1012.81
2019-01-11T07:23:55.725Z,1012.72
2019-01-11T07:24:55.701Z,1012.72
2019-01-11T07:25:55.676Z,1012.73
2019-01-11T07:26:55.661Z,1012.70
2019-01-11T07:27:55.646Z,1012.70
2019-01-11T07:28:55.606Z,1012.70
2019-01-11T07:29:55.587Z,1012.75
2019-01-11T07:30:55.566Z,1012.69
2019-01-11T07:31:55.541Z,1012.72
2019-01-11T07:32:55.523Z,1012.68
2019-01-11T07:33:55.500Z,1012.72
2019-01-11T07:34:55.477Z,1012.68
2019-01-11T07:35:55.455Z,1012.68
2019-01-11T07:36:55.430Z,1012.69
2019-01-11T07:37:55.411Z,1012.66
2019-01-11T07:38:55.389Z,1012.64
2019-01-11T07:39:55.365Z,1012.60
2019-01-11T07:40:55.344Z,1012.61
2019-01-11T07:41:55.323Z,1012.62
2019-01-11T07:42:55.298Z,1012.61
2019-01-11T07:43:55.277Z,1012.60
2019-01-11T07:44:55.253Z,1012.63
2019-01-11T07:45:55.234Z,1012.67
2019-01-11T07:46:55.209Z,1012.66
2019-01-11T07:47:55.212Z,1012.69
2019-01-11T07:48:55.171Z,1012.72
2019-01-11T07:49:55.141Z,1012.72
2019-01-11T07:50:55.123Z,1012.75
2019-01-11T07:51:55.106Z,1012.78
2019-01-11T07:52:55.077Z,1012.80
2019-01-11T07:53:55.057Z,1012.79
2019-01-11T07:54:55.039Z,1012.80
2019-01-11T07:55:55.014Z,1012.78
2019-01-11T07:56:54.992Z,1012.73
2019-01-11T07:57:54.968Z,1012.75
2019-01-11T07:58:54.955Z,1012.71
2019-01-11T07:59:54.924Z,1012.74
2019-01-11T08:00:54.900Z,1012.72
2019-01-11T08:01:54.878Z,1012.71
2019-01-11T08:02:54.856Z,1012.72
2019-01-11T08:03:54.835Z,1012.74
2019-01-11T08:04:54.814Z,1012.78
2019-01-11T08:05:54.791Z,1012.77
2019-01-11T08:06:54.770Z,1012.72
2019-01-11T08:07:54.750Z,1012.74
2019-01-11T08:08:54.725Z,1012.69
2019-01-11T08:09:54.721Z,1012.70
2019-01-11T08:10:54.682Z,1012.75
2019-01-11T08:11:54.661Z,1012.73
2019-01-11T08:12:54.640Z,1012.78
2019-01-11T08:13:54.614Z,1012.79
2019-01-11T08:14:54.600Z,1012.80
2019-01-11T08:15:54.598Z,1012.81
2019-01-11T08:16:54.548Z,1012.82
2019-01-11T08:17:54.555Z,1012.88
2019-01-11T08:18:54.531Z,1012.88
2019-01-11T08:19:54.483Z,1012.86
2019-01-11T08:20:56.373Z,1012.81
2019-01-11T08:21:54.449Z,1012.77
2019-01-11T08:22:54.418Z,1012.78
2019-01-11T08:23:54.402Z,1012.77
2019-01-11T08:24:54.376Z,1012.76
2019-01-11T08:25:54.358Z,1012.81
2019-01-11T08:26:54.345Z,1012.75
2019-01-11T08:27:54.311Z,1012.75
2019-01-11T08:28:54.284Z,1012.79
2019-01-11T08:29:54.267Z,1012.79
2019-01-11T08:30:54.243Z,1012.83
2019-01-11T08:31:54.226Z,1012.82
2019-01-11T08:32:54.199Z,1012.82
2019-01-11T08:33:54.181Z,1012.81
2019-01-11T08:34:54.157Z,1012.87
2019-01-11T08:35:54.132Z,1012.84
2019-01-11T08:36:54.114Z,1012.80
2019-01-11T08:37:54.091Z,1012.82
2019-01-11T08:38:54.083Z,1012.88
2019-01-11T08:39:54.046Z,1012.84
2019-01-11T08:40:54.025Z,1012.87
2019-01-11T08:41:54.007Z,1012.85
2019-01-11T08:42:54.023Z,1012.80
2019-01-11T08:43:53.956Z,1012.77
2019-01-11T08:44:53.938Z,1012.74
2019-01-11T08:45:53.918Z,1012.71
2019-01-11T08:46:53.893Z,1012.68
2019-01-11T08:47:53.871Z,1012.74
2019-01-11T08:48:53.853Z,1012.73
2019-01-11T08:49:53.831Z,1012.77
2019-01-11T08:50:53.811Z,1012.76
2019-01-11T08:51:53.784Z,1012.75
2019-01-11T08:52:53.763Z,1012.70
2019-01-11T08:53:53.746Z,1012.71
2019-01-11T08:54:53.720Z,1012.68
2019-01-11T08:55:53.695Z,1012.65
2019-01-11T08:56:53.673Z,1012.69
2019-01-11T08:57:53.656Z,1012.63
2019-01-11T08:58:53.631Z,1012.63
2019-01-11T08:59:53.606Z,1012.66
2019-01-11T09:00:53.589Z,1012.67
2019-01-11T09:01:53.571Z,1012.69
2019-01-11T09:02:53.558Z,1012.64
2019-01-11T09:03:53.522Z,1012.63
2019-01-11T09:04:53.503Z,1012.59
2019-01-11T09:05:53.478Z,1012.57
2019-01-11T09:06:53.457Z,1012.57
2019-01-11T09:07:53.438Z,1012.54
2019-01-11T09:08:53.416Z,1012.53
2019-01-11T09:09:53.396Z,1012.49
2019-01-11T09:10:53.371Z,1012.52
2019-01-11T09:11:53.352Z,1012.50
2019-01-11T09:12:53.327Z,1012.47
2019-01-11T09:13:53.309Z,1012.45
2019-01-11T09:14:53.284Z,1012.46
2019-01-11T09:15:53.273Z,1012.42
2019-01-11T09:16:53.241Z,1012.46
2019-01-11T09:17:53.221Z,1012.44
2019-01-11T09:18:53.205Z,1012.50
2019-01-11T09:19:53.177Z,1012.56
2019-01-11T09:20:53.178Z,1012.56
2019-01-11T09:21:53.141Z,1012.58
2019-01-11T09:22:53.117Z,1012.56
2019-01-11T09:23:53.096Z,1012.62
2019-01-11T09:24:53.075Z,1012.59
2019-01-11T09:25:53.054Z,1012.57
2019-01-11T09:26:53.029Z,1012.60
2019-01-11T09:27:53.011Z,1012.56
2019-01-11T09:28:52.989Z,1012.60
2019-01-11T09:29:52.965Z,1012.60
2019-01-11T09:30:52.943Z,1012.59
2019-01-11T09:31:52.922Z,1012.55
2019-01-11T09:32:52.909Z,1012.54
2019-01-11T09:33:52.881Z,1012.57
2019-01-11T09:34:52.859Z,1012.58
2019-01-11T09:35:52.839Z,1012.59
2019-01-11T09:36:52.818Z,1012.64
2019-01-11T09:37:52.796Z,1012.65
2019-01-11T09:38:52.780Z,1012.65
2019-01-11T09:39:52.753Z,1012.69
2019-01-11T09:40:52.735Z,1012.70
2019-01-11T09:41:52.716Z,1012.64
2019-01-11T09:42:52.697Z,1012.64
2019-01-11T09:43:52.673Z,1012.58
2019-01-11T09:44:52.653Z,1012.59
2019-01-11T09:45:53.286Z,1012.59
2019-01-11T09:46:52.661Z,1012.65
2019-01-11T09:47:52.660Z,1012.65
2019-01-11T09:48:52.587Z,1012.59
2019-01-11T09:49:52.599Z,1012.63
2019-01-11T09:50:52.526Z,1012.61
2019-01-11T09:51:52.505Z,1012.62
2019-01-11T09:52:52.480Z,1012.62
2019-01-11T09:53:52.465Z,1012.64
2019-01-11T09:54:52.439Z,1012.66
2019-01-11T09:55:52.422Z,1012.69
2019-01-11T09:56:52.401Z,1012.66
2019-01-11T09:57:52.379Z,1012.63
2019-01-11T09:58:52.363Z,1012.62
2019-01-11T09:59:52.339Z,1012.64
2019-01-11T10:00:52.317Z,1012.59
2019-01-11T10:01:52.304Z,1012.60
2019-01-11T10:02:52.301Z,1012.62
2019-01-11T10:03:52.256Z,1012.63
2019-01-11T10:04:52.230Z,1012.61
2019-01-11T10:05:52.212Z,1012.61
2019-01-11T10:06:52.207Z,1012.59
2019-01-11T10:07:52.170Z,1012.60
2019-01-11T10:08:52.156Z,1012.64
2019-01-11T10:09:52.131Z,1012.64
2019-01-11T10:10:52.110Z,1012.63
2019-01-11T10:11:52.085Z,1012.57
2019-01-11T10:12:52.108Z,1012.62
2019-01-11T10:13:52.045Z,1012.59
2019-01-11T10:14:52.030Z,1012.60
2019-01-11T10:15:52.012Z,1012.58
2019-01-11T10:16:51.984Z,1012.58
2019-01-11T10:17:51.968Z,1012.59
2019-01-11T10:18:51.954Z,1012.56
2019-01-11T10:19:51.920Z,1012.53
2019-01-11T10:20:51.904Z,1012.48
2019-01-11T10:21:52.562Z,1012.49
2019-01-11T10:22:51.894Z,1012.46
2019-01-11T10:23:51.844Z,1012.44
2019-01-11T10:24:51.845Z,1012.41
2019-01-11T10:25:51.857Z,1012.39
2019-01-11T10:26:51.783Z,1012.39
2019-01-11T10:27:51.769Z,1012.39
2019-01-11T10:28:51.743Z,1012.37
2019-01-11T10:29:51.718Z,1012.35
2019-01-11T10:30:51.701Z,1012.39
2019-01-11T10:31:51.692Z,1012.39
2019-01-11T10:32:51.656Z,1012.37
2019-01-11T10:33:51.640Z,1012.33
2019-01-11T10:34:51.769Z,1012.38
2019-01-11T10:35:51.599Z,1012.40
2019-01-11T10:36:51.579Z,1012.40
2019-01-11T10:37:51.559Z,1012.41
2019-01-11T10:38:51.546Z,1012.40
2019-01-11T10:39:51.517Z,1012.42
2019-01-11T10:40:51.497Z,1012.47
2019-01-11T10:41:51.554Z,1012.45
2019-01-11T10:42:51.463Z,1012.43
2019-01-11T10:43:51.436Z,1012.43
2019-01-11T10:44:51.471Z,1012.41
2019-01-11T10:45:51.405Z,1012.41
2019-01-11T10:46:51.440Z,1012.42
2019-01-11T10:47:51.382Z,1012.37
2019-01-11T10:48:51.338Z,1012.40
2019-01-11T10:49:51.318Z,1012.39
2019-01-11T10:50:51.307Z,1012.43
2019-01-11T10:51:51.279Z,1012.43
2019-01-11T10:52:51.266Z,1012.41
2019-01-11T10:53:54.239Z,1012.40
2019-01-11T10:54:51.217Z,1012.35
2019-01-11T10:55:51.219Z,1012.38
2019-01-11T10:56:51.185Z,1012.37
2019-01-11T10:57:51.204Z,1012.35
2019-01-11T10:58:51.129Z,1012.38
2019-01-11T10:59:51.126Z,1012.34
2019-01-11T11:00:51.113Z,1012.32
2019-01-11T11:01:51.070Z,1012.27
2019-01-11T11:02:51.050Z,1012.23
2019-01-11T11:03:51.055Z,1012.24
2019-01-11T11:04:51.031Z,1012.24
2019-01-11T11:05:51.005Z,1012.23
2019-01-11T11:06:50.978Z,1012.22
2019-01-11T11:07:50.987Z,1012.22
2019-01-11T11:08:50.959Z,1012.25
2019-01-11T11:09:50.945Z,1012.24
2019-01-11T11:10:50.905Z,1012.23
2019-01-11T11:11:50.869Z,1012.23
2019-01-11T11:12:50.853Z,1012.21
2019-01-11T11:13:50.838Z,1012.25
2019-01-11T11:14:50.869Z,1012.22
2019-01-11T11:15:50.817Z,1012.22
2019-01-11T11:16:50.879Z,1012.21
2019-01-11T11:17:50.773Z,1012.23
2019-01-11T11:18:50.734Z,1012.22
2019-01-11T11:19:50.714Z,1012.20
2019-01-11T11:20:50.695Z,1012.19
2019-01-11T11:21:50.690Z,1012.20
2019-01-11T11:22:50.656Z,1012.16
2019-01-11T11:23:53.947Z,1012.17
2019-01-11T11:24:50.620Z,1012.10
2019-01-11T11:25:50.597Z,1012.11
2019-01-11T11:26:50.577Z,1012.05
2019-01-11T11:27:50.556Z,1012.08
2019-01-11T11:28:50.537Z,1012.08
2019-01-11T11:29:50.515Z,1012.05
2019-01-11T11:30:51.088Z,1012.08
2019-01-11T11:31:50.480Z,1012.05
2019-01-11T11:32:50.458Z,1012.03
2019-01-11T11:33:50.441Z,1012.06
2019-01-11T11:34:50.419Z,1012.00
2019-01-11T11:35:50.398Z,1012.00
2019-01-11T11:36:50.374Z,1012.00
2019-01-11T11:37:50.357Z,1012.01
2019-01-11T11:38:50.333Z,1011.98
2019-01-11T11:39:50.320Z,1011.99
2019-01-11T11:40:50.298Z,1011.95
2019-01-11T11:41:50.278Z,1011.94
2019-01-11T11:42:50.264Z,1011.96
2019-01-11T11:43:50.236Z,1011.94
2019-01-11T11:44:50.220Z,1011.95
2019-01-11T11:45:50.198Z,1011.91
2019-01-11T11:46:50.180Z,1011.86
2019-01-11T11:47:50.164Z,1011.91
2019-01-11T11:48:50.142Z,1011.86
2019-01-11T11:49:50.119Z,1011.85
2019-01-11T11:50:50.104Z,1011.82
2019-01-11T11:51:50.083Z,1011.83
2019-01-11T11:52:50.061Z,1011.78
2019-01-11T11:53:50.072Z,1011.78
2019-01-11T11:54:50.032Z,1011.72
2019-01-11T11:55:49.999Z,1011.71
2019-01-11T11:56:49.980Z,1011.71
2019-01-11T11:57:49.962Z,1011.65
2019-01-11T11:58:49.941Z,1011.65
2019-01-11T11:59:49.924Z,1011.64
2019-01-11T12:00:49.901Z,1011.65
2019-01-11T12:01:52.455Z,1011.63
2019-01-11T12:02:49.862Z,1011.64
2019-01-11T12:03:49.840Z,1011.64
2019-01-11T12:04:49.827Z,1011.63